Terminal Aerodrome Forecast
Issued by NWS Sterling, VA

Current Version | Previous Version | Text Only | Print | Product List | Glossary Off
Versions: 1 2 3 4 5 6 7 8 9 10 11 12 13 14 15 16 17 18 19 20 21

766
FTUS41 KLWX 211517 AAA
TAFIAD
TAF AMD
KIAD 211517Z 2115/2218 21004KT P6SM FEW050
     FM211800 19006KT P6SM SCT060
     FM220400 18003KT P6SM FEW060=

USA.gov is the U.S. government's official web portal to all federal, state and local government web resources and services.